Carpenter Bottom, North Carolina
Current Conditions -  °F | °C
As of 3:35 PM on Thursday 20 Nov 2014 (Local Time) from KTNB Reporting Station
Clear Clear  
Wind Chill: 32°   Ceiling: Unl
Heat Index: 41°   Visibility: 10mi
Dew Point: 21°   Wind: 17mph
Humidity: 45%   Direction: 310°NW
Pressure: 30.03"   Gusts: 32mph
Location:  36.0825°N, 81.9964°W
Report Text: KTNB 202035Z AUTO 31015G28KT 10SM CLR 05/M06 A3003 RMK AO2 T00481063
Loading
Personal Weather Stations






























Interactive Weather Map New forecast layout! Learn more

10-Day Weather Forecast

Advertisements
Track Severe Weather on mobile